Time;durP1;ratioP1;P1;durP2;ratioP2;P2;SDS_P1;SDS_P2;PMS_P1;PMS_P2;Temp;Humidity;BMP_temperature;BMP_pressure;BME280_temperature;BME280_humidity;BME280_pressure;Samples;Min_cycle;Max_cycle;Signal;HPM_P1;HPM_P2
2023/10/26 00:02:04;;;;;;;73.00;49.33;;;;;;;19.95;nan;98867.28;5016844;28;20053;-64
2023/10/26 00:04:36;;;;;;;73.00;47.78;;;;;;;20.02;nan;98867.91;5014467;28;20049;-64
2023/10/26 00:07:06;;;;;;;66.47;49.53;;;;;;;20.09;nan;98871.25;5004436;28;20103;-64
2023/10/26 00:09:36;;;;;;;71.22;48.30;;;;;;;19.86;nan;98863.41;5017000;28;20720;-65
2023/10/26 00:12:05;;;;;;;81.20;50.75;;;;;;;19.94;nan;98871.84;5020424;28;20076;-65
2023/10/26 00:14:35;;;;;;;81.00;50.00;;;;;;;19.98;nan;98864.09;5011916;28;20128;-64
2023/10/26 00:17:05;;;;;;;73.85;51.90;;;;;;;19.79;nan;98865.44;5014983;28;20057;-65
2023/10/26 00:19:35;;;;;;;75.18;51.50;;;;;;;19.67;nan;98870.94;5017473;28;20049;-64
2023/10/26 00:22:05;;;;;;;73.95;51.15;;;;;;;19.85;nan;98864.47;5011049;28;20444;-64
2023/10/26 00:24:35;;;;;;;74.97;52.25;;;;;;;19.69;nan;98869.63;5021212;28;20057;-64
2023/10/26 00:27:04;;;;;;;72.20;52.75;;;;;;;19.86;nan;98866.91;5019692;28;20144;-64
2023/10/26 00:29:33;;;;;;;75.75;53.78;;;;;;;19.84;nan;98866.34;4990826;28;20053;-64
2023/10/26 00:32:06;;;;;;;74.45;52.47;;;;;;;19.76;nan;98874.00;5009251;28;20634;-64
2023/10/26 00:34:36;;;;;;;75.27;53.73;;;;;;;19.74;nan;98871.56;5016469;28;20390;-64
2023/10/26 00:37:05;;;;;;;75.28;52.63;;;;;;;19.85;nan;98861.78;5009373;28;20299;-64
2023/10/26 00:39:35;;;;;;;74.53;50.85;;;;;;;19.90;nan;98873.41;5027644;28;20064;-64
2023/10/26 00:42:04;;;;;;;75.38;52.45;;;;;;;19.91;nan;98876.94;5023682;28;20367;-64
2023/10/26 00:44:34;;;;;;;76.68;52.60;;;;;;;19.74;nan;98871.56;5007404;28;20519;-65
2023/10/26 00:47:07;;;;;;;71.95;53.05;;;;;;;19.71;nan;98880.13;5015556;28;20049;-65
2023/10/26 00:49:37;;;;;;;78.05;54.80;;;;;;;19.82;nan;98878.41;4988439;28;20052;-65
2023/10/26 00:52:08;;;;;;;80.22;52.35;;;;;;;19.71;nan;98883.63;4998103;28;20137;-65
2023/10/26 00:54:41;;;;;;;73.75;53.58;;;;;;;19.64;nan;98882.19;5008127;28;20374;-65
2023/10/26 00:57:17;;;;;;;77.65;54.78;;;;;;;19.50;nan;98889.78;5016391;28;20064;-66
2023/10/26 00:59:48;;;;;;;81.47;56.75;;;;;;;19.77;nan;98889.09;4990602;28;20053;-65
2023/10/26 01:02:20;;;;;;;82.40;58.42;;;;;;;19.63;nan;98886.75;5008891;28;20050;-64
2023/10/26 01:04:50;;;;;;;85.90;55.10;;;;;;;19.64;nan;98885.69;5009079;28;20041;-64
2023/10/26 01:07:21;;;;;;;88.05;57.47;;;;;;;19.83;nan;98896.97;5016570;28;20146;-65
2023/10/26 01:09:50;;;;;;;82.35;58.22;;;;;;;19.60;nan;98891.81;5007520;28;20046;-63
2023/10/26 01:12:20;;;;;;;82.45;59.13;;;;;;;19.62;nan;98900.41;4995531;28;20057;-63
2023/10/26 01:14:50;;;;;;;86.22;58.53;;;;;;;19.50;nan;98900.50;5008442;28;20144;-64
2023/10/26 01:17:19;;;;;;;81.70;58.70;;;;;;;19.46;nan;98903.94;5016981;28;20363;-64
2023/10/26 01:19:49;;;;;;;78.90;58.42;;;;;;;19.59;nan;98907.09;5026837;28;20065;-64
2023/10/26 01:22:19;;;;;;;77.95;57.08;;;;;;;19.81;nan;98911.72;5004834;28;20408;-64
2023/10/26 01:24:48;;;;;;;85.18;59.13;;;;;;;19.64;nan;98911.75;5017644;28;20045;-64
2023/10/26 01:27:18;;;;;;;81.57;56.95;;;;;;;19.77;nan;98918.66;4999679;28;20579;-64
2023/10/26 01:29:47;;;;;;;91.13;59.58;;;;;;;19.55;nan;98918.59;5006439;28;20046;-64
2023/10/26 01:32:16;;;;;;;83.47;59.55;;;;;;;19.72;nan;98914.81;5003626;28;20108;-64
2023/10/26 01:34:46;;;;;;;88.93;59.10;;;;;;;19.76;nan;98925.06;5007203;28;20131;-65
2023/10/26 01:37:15;;;;;;;85.15;59.20;;;;;;;19.62;nan;98920.03;5014899;28;20053;-65
2023/10/26 01:39:44;;;;;;;89.85;58.83;;;;;;;19.76;nan;98917.00;5025241;28;20084;-64
2023/10/26 01:42:18;;;;;;;;;;;;;;;19.77;nan;98929.41;5009230;28;20132;-66
2023/10/26 01:44:47;;;;;;;85.80;58.38;;;;;;;19.60;nan;98929.41;5026900;28;20280;-64
2023/10/26 01:47:17;;;;;;;86.10;57.10;;;;;;;19.66;nan;98931.91;5008150;28;20073;-65
2023/10/26 01:49:47;;;;;;;87.28;59.65;;;;;;;19.80;nan;98935.09;5009421;28;20401;-65
2023/10/26 01:52:17;;;;;;;87.53;60.08;;;;;;;19.73;nan;98942.53;5011613;28;20136;-65
2023/10/26 01:54:47;;;;;;;84.57;59.75;;;;;;;19.86;nan;98938.69;4989740;28;20500;-65
2023/10/26 01:57:18;;;;;;;87.53;59.90;;;;;;;19.87;nan;98943.00;4993748;28;20056;-65
2023/10/26 01:59:48;;;;;;;84.53;59.42;;;;;;;20.18;nan;98943.16;5005206;28;20076;-65
2023/10/26 02:02:17;;;;;;;88.97;61.03;;;;;;;20.11;nan;98945.22;5019735;28;20057;-65
2023/10/26 02:04:46;;;;;;;87.53;62.85;;;;;;;20.12;nan;98952.25;5023948;28;20629;-65
2023/10/26 02:07:16;;;;;;;86.28;60.00;;;;;;;20.24;nan;98954.81;5019009;28;20054;-65
2023/10/26 02:09:45;;;;;;;96.28;64.35;;;;;;;20.31;nan;98955.50;5005873;28;20049;-65
2023/10/26 02:12:14;;;;;;;89.50;62.30;;;;;;;20.31;nan;98971.63;5006607;28;20053;-65
2023/10/26 02:14:44;;;;;;;94.00;62.72;;;;;;;20.34;nan;98960.38;5024150;28;20045;-64
2023/10/26 02:17:13;;;;;;;98.28;61.67;;;;;;;20.54;nan;98975.94;5010908;28;20225;-65
2023/10/26 02:19:43;;;;;;;89.38;60.83;;;;;;;20.76;nan;98975.94;5012688;28;20041;-65
2023/10/26 02:22:14;;;;;;;91.50;60.95;;;;;;;20.79;nan;98978.13;5008228;28;20053;-65
2023/10/26 02:24:43;;;;;;;93.00;60.85;;;;;;;20.88;nan;98980.13;5007538;28;20057;-65
2023/10/26 02:27:16;;;;;;;98.57;64.22;;;;;;;21.05;nan;98980.03;5017903;28;20080;-65
2023/10/26 02:29:47;;;;;;;100.28;61.70;;;;;;;21.26;nan;98978.41;5006024;28;20582;-65
2023/10/26 02:32:17;;;;;;;95.78;62.20;;;;;;;21.48;nan;98988.03;5020643;28;20505;-65
2023/10/26 02:34:46;;;;;;;89.65;60.40;;;;;;;21.59;nan;98991.66;5025688;28;20752;-65
2023/10/26 02:37:18;;;;;;;87.72;61.00;;;;;;;21.75;nan;98990.69;5014809;28;20057;-64
2023/10/26 02:39:47;;;;;;;92.05;58.63;;;;;;;21.86;nan;98994.31;5000220;28;20744;-65
2023/10/26 02:42:20;;;;;;;90.32;59.08;;;;;;;22.16;nan;98999.13;5006883;28;20050;-65
2023/10/26 02:44:49;;;;;;;78.97;57.00;;;;;;;22.18;nan;98996.97;4999357;28;20074;-64
2023/10/26 02:47:19;;;;;;;84.82;54.45;;;;;;;22.25;nan;99000.25;5009587;28;20062;-65
2023/10/26 02:49:51;;;;;;;84.68;53.25;;;;;;;22.42;nan;99005.47;4986317;28;20568;-65
2023/10/26 02:52:26;;;;;;;86.07;54.17;;;;;;;22.70;nan;99010.53;4994156;28;20054;-65
2023/10/26 02:54:55;;;;;;;76.22;51.13;;;;;;;22.84;nan;99011.63;5005648;28;20370;-64
2023/10/26 02:57:24;;;;;;;76.80;50.22;;;;;;;22.95;nan;99020.59;5010783;28;20061;-65
2023/10/26 02:59:55;;;;;;;66.80;48.17;;;;;;;23.18;nan;99023.66;4998477;28;20106;-65
2023/10/26 03:02:24;;;;;;;67.93;47.60;;;;;;;23.11;nan;99023.06;4986591;28;20046;-65
2023/10/26 03:04:53;;;;;;;79.60;49.92;;;;;;;23.43;nan;99025.59;5000112;28;20073;-65
2023/10/26 03:07:23;;;;;;;73.85;46.38;;;;;;;23.60;nan;99031.59;5000476;28;20037;-65
2023/10/26 03:09:52;;;;;;;65.55;46.30;;;;;;;23.91;nan;99037.81;4988530;28;20046;-65
2023/10/26 03:12:22;;;;;;;79.45;44.40;;;;;;;23.96;nan;99040.53;5002135;28;20049;-65
2023/10/26 03:14:52;;;;;;;66.32;41.92;;;;;;;24.08;nan;99041.06;5003839;28;20050;-64
2023/10/26 03:17:21;;;;;;;68.30;42.13;;;;;;;24.23;nan;99034.88;5006318;28;20065;-65
2023/10/26 03:19:51;;;;;;;57.25;39.63;;;;;;;24.27;nan;99040.53;5004922;28;20131;-65
2023/10/26 03:22:21;;;;;;;65.30;39.25;;;;;;;24.50;nan;99050.78;5015349;28;20418;-65
2023/10/26 03:24:51;;;;;;;67.32;39.50;;;;;;;24.65;nan;99052.66;4985950;28;20116;-65
2023/10/26 03:27:21;;;;;;;69.93;40.47;;;;;;;24.69;nan;99059.97;4993557;28;20049;-65
2023/10/26 03:29:51;;;;;;;54.25;37.58;;;;;;;24.69;nan;99054.53;4984509;28;20046;-65
2023/10/26 03:32:23;;;;;;;68.95;37.67;;;;;;;24.81;nan;99063.16;4996479;28;20050;-65
2023/10/26 03:34:53;;;;;;;62.50;39.83;;;;;;;24.86;nan;99063.19;4993767;28;20062;-65
2023/10/26 03:37:22;;;;;;;59.15;37.55;;;;;;;24.83;nan;99068.28;4997727;28;20051;-65
2023/10/26 03:39:52;;;;;;;59.92;38.78;;;;;;;25.09;nan;99060.91;5000441;28;20467;-65
2023/10/26 03:42:21;;;;;;;54.75;40.10;;;;;;;25.00;nan;99068.81;4985779;28;20056;-65
2023/10/26 03:44:51;;;;;;;58.30;37.80;;;;;;;25.25;nan;99070.59;5005151;28;20058;-65
2023/10/26 03:47:21;;;;;;;57.15;36.50;;;;;;;25.39;nan;99074.31;5004020;28;20050;-65
2023/10/26 03:49:53;;;;;;;53.28;39.60;;;;;;;25.51;nan;99077.50;5009199;28;20060;-65
2023/10/26 03:52:22;;;;;;;59.40;38.70;;;;;;;25.86;nan;99071.06;5006604;28;20109;-65
2023/10/26 03:54:51;;;;;;;61.70;38.22;;;;;;;25.97;nan;99074.50;5006582;28;20051;-65
2023/10/26 03:57:21;;;;;;;56.90;38.13;;;;;;;26.22;nan;99072.41;4998631;28;20488;-65
2023/10/26 03:59:50;;;;;;;55.42;39.47;;;;;;;26.27;nan;99082.44;5004466;28;20046;-65
2023/10/26 04:02:20;;;;;;;52.05;39.90;;;;;;;26.59;nan;99085.38;4990409;28;20042;-65
2023/10/26 04:04:50;;;;;;;55.80;38.03;;;;;;;26.75;nan;99081.38;4989094;28;20050;-65
2023/10/26 04:07:20;;;;;;;54.50;38.00;;;;;;;26.96;nan;99081.19;4997756;28;20049;-65
2023/10/26 04:09:49;;;;;;;61.67;41.25;;;;;;;27.17;nan;99085.28;4985553;28;20046;-65
2023/10/26 04:12:18;;;;;;;53.63;38.53;;;;;;;27.31;nan;99078.00;5000977;28;20070;-65
2023/10/26 04:14:48;;;;;;;58.15;39.63;;;;;;;27.43;nan;99081.13;5006754;28;20045;-65
2023/10/26 04:17:17;;;;;;;55.78;37.88;;;;;;;27.68;nan;99085.41;4998353;28;20046;-65
2023/10/26 04:19:47;;;;;;;54.80;38.75;;;;;;;27.68;nan;99083.50;4988658;28;20594;-65
2023/10/26 04:22:16;;;;;;;60.67;39.33;;;;;;;27.85;nan;99084.88;4990187;28;20073;-65
2023/10/26 04:24:45;;;;;;;59.63;37.70;;;;;;;28.23;nan;99081.03;4996753;28;20049;-65
2023/10/26 04:27:14;;;;;;;49.65;35.60;;;;;;;28.40;nan;99088.66;4999634;28;20061;-66
2023/10/26 04:29:44;;;;;;;51.28;36.25;;;;;;;28.54;nan;99089.50;4993203;28;20100;-67
2023/10/26 04:32:14;;;;;;;46.45;34.85;;;;;;;28.74;nan;99089.13;4990119;28;20133;-69
2023/10/26 04:34:46;;;;;;;46.90;34.33;;;;;;;29.19;nan;99090.13;4989674;28;20058;-66
2023/10/26 04:37:16;;;;;;;50.17;33.72;;;;;;;29.11;nan;99085.41;4999843;28;20161;-67
2023/10/26 04:39:48;;;;;;;48.88;32.72;;;;;;;29.55;nan;99095.66;4997417;28;20137;-67
2023/10/26 04:42:18;;;;;;;41.88;31.98;;;;;;;30.05;nan;99093.69;4989680;28;20055;-67
2023/10/26 04:44:47;;;;;;;45.05;31.27;;;;;;;29.92;nan;99091.03;4994138;28;20042;-68
2023/10/26 04:47:16;;;;;;;40.95;30.52;;;;;;;30.21;nan;99094.94;5015749;28;20069;-68
2023/10/26 04:49:46;;;;;;;44.85;29.83;;;;;;;30.56;nan;99100.63;5011446;28;20049;-68
2023/10/26 04:52:18;;;;;;;47.95;31.48;;;;;;;31.00;nan;99096.97;5009449;28;20049;-68
2023/10/26 04:54:48;;;;;;;71.97;34.55;;;;;;;30.81;nan;99096.41;5007462;28;20042;-67
2023/10/26 04:57:17;;;;;;;46.97;31.48;;;;;;;30.85;nan;99094.69;5009046;28;20129;-68
2023/10/26 04:59:46;;;;;;;36.97;28.30;;;;;;;31.48;nan;99096.94;5008738;28;20074;-68
2023/10/26 05:02:19;;;;;;;45.13;29.60;;;;;;;31.61;nan;99096.84;5009720;28;20046;-67
2023/10/26 05:04:48;;;;;;;47.40;31.23;;;;;;;31.32;nan;99093.06;5004653;28;20497;-67
2023/10/26 05:07:17;;;;;;;42.88;28.15;;;;;;;30.74;nan;99097.69;5006880;28;20116;-67
2023/10/26 05:09:47;;;;;;;39.08;27.88;;;;;;;31.29;nan;99091.75;5010282;28;20775;-66
2023/10/26 05:12:17;;;;;;;38.10;27.63;;;;;;;31.10;nan;99086.56;5005254;28;20669;-67
2023/10/26 05:14:47;;;;;;;41.35;27.00;;;;;;;31.47;nan;99096.13;4986946;28;20128;-67
2023/10/26 05:17:16;;;;;;;40.38;27.38;;;;;;;31.93;nan;99098.28;5005108;28;20046;-67
2023/10/26 05:19:46;;;;;;;44.95;28.85;;;;;;;31.36;nan;99097.59;5009141;28;20057;-67
2023/10/26 05:22:17;;;;;;;40.33;27.08;;;;;;;31.71;nan;99086.69;5004546;28;20516;-67
2023/10/26 05:24:46;;;;;;;34.60;25.50;;;;;;;31.41;nan;99096.63;5005642;28;20054;-68
2023/10/26 05:27:16;;;;;;;45.15;26.10;;;;;;;31.72;nan;99093.78;5000190;28;20057;-68
2023/10/26 05:29:45;;;;;;;46.63;24.15;;;;;;;31.86;nan;99087.03;5007021;28;20516;-67
2023/10/26 05:32:17;;;;;;;38.30;26.00;;;;;;;31.54;nan;99088.28;5000848;28;20739;-68
2023/10/26 05:34:47;;;;;;;34.10;22.20;;;;;;;32.03;nan;99087.00;5005736;28;20151;-67
2023/10/26 05:37:16;;;;;;;33.35;20.27;;;;;;;31.75;nan;99085.72;5008696;28;20075;-67
2023/10/26 05:39:46;;;;;;;30.63;18.75;;;;;;;31.68;nan;99081.88;5010795;28;20054;-69
2023/10/26 05:42:16;;;;;;;28.88;17.77;;;;;;;31.03;nan;99077.19;5003956;28;20160;-68
2023/10/26 05:44:45;;;;;;;36.58;18.75;;;;;;;31.45;nan;99073.75;5004243;28;20381;-70
2023/10/26 05:47:15;;;;;;;31.92;18.65;;;;;;;31.73;nan;99071.56;5005273;28;20060;-70
2023/10/26 05:49:48;;;;;;;30.83;17.92;;;;;;;31.69;nan;99075.25;5007383;28;20145;-71
2023/10/26 05:52:18;;;;;;;28.65;17.60;;;;;;;31.73;nan;99063.34;5007655;28;20042;-70
2023/10/26 05:54:47;;;;;;;31.02;18.73;;;;;;;31.06;nan;99069.19;5005093;28;20046;-68
2023/10/26 05:57:17;;;;;;;32.72;17.70;;;;;;;31.46;nan;99060.88;5005722;28;20069;-69
2023/10/26 05:59:47;;;;;;;32.55;16.85;;;;;;;31.58;nan;99056.41;5008344;28;20470;-69
2023/10/26 06:02:18;;;;;;;27.20;15.77;;;;;;;31.46;nan;99060.88;4996174;28;20073;-68
2023/10/26 06:04:49;;;;;;;29.60;15.73;;;;;;;32.04;nan;99057.69;4990238;28;20674;-69
2023/10/26 06:07:20;;;;;;;24.85;14.45;;;;;;;31.99;nan;99052.34;4999444;28;20049;-69
2023/10/26 06:09:50;;;;;;;24.10;13.93;;;;;;;31.92;nan;99054.75;5005308;28;20049;-69
2023/10/26 06:12:19;;;;;;;20.58;12.50;;;;;;;31.66;nan;99049.31;5007347;28;20526;-69
2023/10/26 06:14:49;;;;;;;26.00;13.65;;;;;;;31.87;nan;99043.97;5004345;28;20054;-69
2023/10/26 06:17:19;;;;;;;20.77;12.52;;;;;;;31.67;nan;99033.69;5011328;28;20120;-68
2023/10/26 06:19:49;;;;;;;21.85;12.63;;;;;;;31.61;nan;99033.03;5006918;28;20056;-68
2023/10/26 06:22:18;;;;;;;27.58;12.80;;;;;;;31.66;nan;99035.63;5003848;28;20560;-72
2023/10/26 06:24:51;;;;;;;27.02;12.57;;;;;;;31.48;nan;99033.97;5006289;28;20769;-70
2023/10/26 06:27:29;;;;;;;23.10;10.98;;;;;;;31.13;nan;99033.13;5010327;28;20550;-69
2023/10/26 06:29:59;;;;;;;18.35;10.70;;;;;;;30.99;nan;99025.00;5005817;28;20053;-68
2023/10/26 06:32:28;;;;;;;20.75;11.52;;;;;;;30.88;nan;99026.44;5003202;28;20539;-69
2023/10/26 06:34:58;;;;;;;22.45;10.65;;;;;;;31.06;nan;99022.66;5005490;28;20050;-70
2023/10/26 06:37:28;;;;;;;24.38;10.40;;;;;;;31.02;nan;99018.16;5007490;28;20053;-70
2023/10/26 06:39:57;;;;;;;16.25;10.85;;;;;;;31.06;nan;99008.97;5007829;28;20779;-70
2023/10/26 06:42:27;;;;;;;15.30;10.15;;;;;;;31.37;nan;99019.00;5006389;28;20150;-69
2023/10/26 06:44:59;;;;;;;26.10;12.05;;;;;;;31.08;nan;99014.94;5006003;28;20128;-70
2023/10/26 06:47:29;;;;;;;26.50;12.05;;;;;;;30.99;nan;98999.59;5006410;28;20133;-71
2023/10/26 06:49:59;;;;;;;15.70;9.90;;;;;;;31.11;nan;99003.34;5013842;28;20053;-71
2023/10/26 06:52:29;;;;;;;18.40;10.75;;;;;;;30.92;nan;99000.06;5005121;28;20053;-70
2023/10/26 06:55:01;;;;;;;23.70;9.90;;;;;;;31.07;nan;98999.63;4994646;28;20061;-70
2023/10/26 06:57:36;;;;;;;14.27;9.30;;;;;;;30.91;nan;98987.50;5005527;28;20739;-71
2023/10/26 07:00:06;;;;;;;18.10;11.07;;;;;;;30.80;nan;98986.22;5005534;28;20064;-70
2023/10/26 07:02:36;;;;;;;14.68;9.10;;;;;;;30.92;nan;98986.38;5009546;28;20051;-69
2023/10/26 07:05:06;;;;;;;19.15;9.50;;;;;;;30.97;nan;98980.78;5003788;28;20486;-69
2023/10/26 07:07:36;;;;;;;16.98;10.27;;;;;;;30.87;nan;98975.59;5005474;28;20064;-70
2023/10/26 07:10:06;;;;;;;14.13;8.45;;;;;;;30.83;nan;98977.34;5019600;28;20054;-71
2023/10/26 07:12:36;;;;;;;20.88;8.68;;;;;;;30.94;nan;98967.72;5009930;28;20054;-69
2023/10/26 07:15:17;;;;;;;20.98;9.60;;;;;;;30.84;nan;98964.50;5024481;28;20053;-69
2023/10/26 07:17:46;;;;;;;18.30;8.52;;;;;;;30.82;nan;98953.84;5023477;28;20052;-70
2023/10/26 07:20:24;;;;;;;20.98;10.27;;;;;;;30.61;nan;98950.13;5006002;28;20046;-69
2023/10/26 07:22:54;;;;;;;16.83;9.02;;;;;;;30.62;nan;98946.25;5006945;28;20137;-69
2023/10/26 07:25:23;;;;;;;19.98;10.23;;;;;;;30.56;nan;98931.13;4983635;28;20478;-70
2023/10/26 07:27:58;;;;;;;17.77;9.15;;;;;;;30.60;nan;98935.63;4987517;28;20050;-69
2023/10/26 07:30:27;;;;;;;12.35;8.73;;;;;;;30.60;nan;98929.34;5019727;28;20409;-70
2023/10/26 07:32:57;;;;;;;14.15;8.40;;;;;;;30.44;nan;98928.97;4989752;28;20076;-68
2023/10/26 07:35:28;;;;;;;18.95;8.60;;;;;;;30.39;nan;98920.09;5009664;28;20078;-70
2023/10/26 07:38:02;;;;;;;13.38;8.25;;;;;;;30.31;nan;98919.78;5003858;28;20056;-70
2023/10/26 07:40:56;;;;;;;16.30;9.52;;;;;;;30.27;nan;98918.75;5004532;28;20050;-69
2023/10/26 07:43:29;;;;;;;19.05;9.63;;;;;;;30.19;nan;98914.06;5005975;28;20068;-69
2023/10/26 07:45:58;;;;;;;;;;;;;;;30.23;nan;98909.59;5016715;28;20053;-69
2023/10/26 07:48:27;;;;;;;23.00;9.02;;;;;;;30.21;nan;98908.31;5016307;28;20362;-69
2023/10/26 07:50:57;;;;;;;16.35;9.55;;;;;;;30.19;nan;98897.69;5004743;28;20053;-70
2023/10/26 07:53:28;;;;;;;16.13;9.50;;;;;;;30.15;nan;98893.97;5006211;28;20045;-69
2023/10/26 07:55:58;;;;;;;13.93;8.38;;;;;;;30.02;nan;98886.69;5009988;28;20465;-69
2023/10/26 07:58:27;;;;;;;21.05;9.00;;;;;;;30.13;nan;98890.78;5017486;28;20877;-70
2023/10/26 08:01:00;;;;;;;16.67;9.35;;;;;;;30.23;nan;98889.66;5020583;28;20045;-71
2023/10/26 08:03:29;;;;;;;19.30;9.63;;;;;;;30.21;nan;98881.78;5006124;28;20072;-70
2023/10/26 08:06:00;;;;;;;18.70;10.57;;;;;;;30.17;nan;98878.09;5004779;28;20049;-70
2023/10/26 08:08:30;;;;;;;14.45;10.02;;;;;;;30.07;nan;98869.34;5009151;28;20056;-69
2023/10/26 08:11:14;;;;;;;21.70;10.15;;;;;;;29.93;nan;98869.47;5024403;28;20078;-69
2023/10/26 08:13:46;;;;;;;19.77;10.77;;;;;;;30.01;nan;98859.69;5020987;28;20073;-70
2023/10/26 08:16:15;;;;;;;19.17;11.38;;;;;;;30.02;nan;98862.09;5023420;28;20213;-73
2023/10/26 08:19:05;;;;;;;17.48;11.05;;;;;;;29.99;nan;98865.47;4998511;28;20051;-70
2023/10/26 08:21:37;;;;;;;16.97;10.53;;;;;;;29.98;nan;98854.84;5015048;28;20587;-69
2023/10/26 08:24:07;;;;;;;25.77;10.52;;;;;;;29.89;nan;98852.09;4991314;28;20136;-68
2023/10/26 08:26:37;;;;;;;19.27;11.93;;;;;;;29.92;nan;98845.22;5007573;28;20735;-67
2023/10/26 08:29:06;;;;;;;17.92;11.50;;;;;;;29.87;nan;98849.66;5004905;28;20135;-68
2023/10/26 08:31:43;;;;;;;19.65;10.93;;;;;;;29.88;nan;98845.00;5007570;28;20121;-69
2023/10/26 08:34:13;;;;;;;21.15;11.77;;;;;;;29.91;nan;98841.66;5008855;28;20074;-69
2023/10/26 08:36:42;;;;;;;19.73;12.45;;;;;;;29.80;nan;98841.09;5023538;28;20053;-69
2023/10/26 08:39:18;;;;;;;16.92;11.82;;;;;;;29.81;nan;98833.72;5026972;28;20135;-70
2023/10/26 08:41:54;;;;;;;23.17;13.38;;;;;;;29.72;nan;98841.88;5010652;28;20056;-70
2023/10/26 08:44:26;;;;;;;18.60;12.60;;;;;;;29.73;nan;98843.50;5023619;28;20370;-69
2023/10/26 08:47:02;;;;;;;17.75;10.07;;;;;;;29.76;nan;98828.41;5020024;28;20137;-69
2023/10/26 08:49:34;;;;;;;15.95;8.75;;;;;;;29.78;nan;98834.34;5004545;28;20053;-69
2023/10/26 08:52:04;;;;;;;15.40;9.50;;;;;;;29.74;nan;98823.22;5032334;28;20647;-68
2023/10/26 08:54:34;;;;;;;13.57;9.45;;;;;;;29.78;nan;98828.91;5025358;28;20068;-68
2023/10/26 08:57:07;;;;;;;18.90;10.45;;;;;;;29.69;nan;98831.59;5027040;28;20436;-69
2023/10/26 08:59:37;;;;;;;;;;;;;;;29.73;nan;98837.22;5010641;28;20141;-69
2023/10/26 09:02:06;;;;;;;14.60;9.10;;;;;;;29.75;nan;98829.50;5014235;28;19928;-68
2023/10/26 09:04:36;;;;;;;17.52;9.55;;;;;;;29.72;nan;98828.22;5024791;28;20079;-69
2023/10/26 09:07:06;;;;;;;15.60;8.90;;;;;;;29.67;nan;98822.91;5026508;28;20049;-68
2023/10/26 09:09:47;;;;;;;12.80;8.48;;;;;;;29.67;nan;98817.44;5027389;28;20049;-68
2023/10/26 09:12:16;;;;;;;16.65;8.35;;;;;;;29.68;nan;98819.06;5022604;28;20065;-68
2023/10/26 09:14:58;;;;;;;14.32;8.80;;;;;;;29.68;nan;98823.72;5026236;28;20392;-69
2023/10/26 09:17:29;;;;;;;18.80;9.68;;;;;;;29.60;nan;98799.91;5024032;28;20053;-69
2023/10/26 09:20:15;;;;;;;13.77;8.38;;;;;;;29.64;nan;98811.81;5027147;28;20095;-68
2023/10/26 09:22:44;;;;;;;16.02;8.20;;;;;;;29.59;nan;98811.94;5020747;28;20141;-69
2023/10/26 09:25:14;;;;;;;16.58;8.65;;;;;;;29.51;nan;98810.78;5027178;28;20053;-69
2023/10/26 09:27:46;;;;;;;13.40;8.43;;;;;;;29.49;nan;98814.94;5026777;28;20411;-69
2023/10/26 09:30:29;;;;;;;17.33;8.00;;;;;;;29.44;nan;98811.22;5026157;28;20481;-69
2023/10/26 09:33:04;;;;;;;16.40;7.70;;;;;;;29.39;nan;98810.53;5015228;28;20355;-69
2023/10/26 09:35:34;;;;;;;13.57;7.88;;;;;;;29.30;nan;98807.75;5012917;28;20041;-69
2023/10/26 09:38:06;;;;;;;9.95;6.60;;;;;;;29.25;nan;98805.16;5026391;28;20041;-68
2023/10/26 09:40:36;;;;;;;11.40;6.30;;;;;;;29.26;nan;98806.75;5023588;28;20056;-69
2023/10/26 09:43:05;;;;;;;9.43;6.72;;;;;;;29.21;nan;98792.44;5017242;28;20045;-69
2023/10/26 09:45:35;;;;;;;10.07;7.07;;;;;;;29.20;nan;98799.84;5026296;28;20626;-69
2023/10/26 09:48:05;;;;;;;22.13;8.70;;;;;;;29.14;nan;98797.53;5026094;28;20045;-68
2023/10/26 09:50:39;;;;;;;18.08;7.90;;;;;;;29.09;nan;98794.94;5009805;28;20123;-69
2023/10/26 09:53:09;;;;;;;32.33;10.32;;;;;;;29.10;nan;98788.34;5013193;28;20076;-69
2023/10/26 09:55:46;;;;;;;15.52;9.63;;;;;;;29.02;nan;98779.81;5019166;28;20609;-69
2023/10/26 09:58:17;;;;;;;25.30;10.90;;;;;;;29.05;nan;98793.94;5006687;28;20078;-69
2023/10/26 10:00:47;;;;;;;24.33;12.25;;;;;;;28.97;nan;98790.03;5006488;28;20059;-69
2023/10/26 10:03:17;;;;;;;21.05;11.68;;;;;;;28.97;nan;98792.78;4985133;28;20049;-69
2023/10/26 10:05:47;;;;;;;21.63;11.63;;;;;;;28.97;nan;98790.03;4978287;28;20171;-70
2023/10/26 10:08:55;;;;;;;19.60;10.68;;;;;;;28.88;nan;98783.72;4999754;28;20534;-69
2023/10/26 10:11:25;;;;;;;21.55;11.73;;;;;;;28.79;nan;98775.47;4997529;28;20486;-70
2023/10/26 10:13:55;;;;;;;23.92;13.10;;;;;;;28.78;nan;98773.06;5001538;28;20061;-69
2023/10/26 10:16:36;;;;;;;20.40;11.20;;;;;;;28.83;nan;98775.66;5001816;28;20149;-69
2023/10/26 10:19:23;;;;;;;16.05;11.93;;;;;;;28.72;nan;98779.75;5001018;28;20664;-68
2023/10/26 10:21:52;;;;;;;21.00;13.02;;;;;;;28.71;nan;98776.22;5002562;28;20042;-68
2023/10/26 10:24:41;;;;;;;21.80;10.45;;;;;;;28.68;nan;98773.28;5003102;28;20065;-70
2023/10/26 10:27:13;;;;;;;17.25;10.00;;;;;;;28.64;nan;98772.28;5005542;28;20151;-69
2023/10/26 10:29:43;;;;;;;16.42;9.65;;;;;;;28.64;nan;98775.81;5001657;28;20053;-69
2023/10/26 10:32:47;;;;;;;15.82;9.23;;;;;;;28.64;nan;98767.63;5000048;28;20046;-69
2023/10/26 10:35:22;;;;;;;;;;;;;;;28.64;nan;98772.28;4994945;28;20144;-69
2023/10/26 10:38:13;;;;;;;16.30;9.40;;;;;;;28.53;nan;98777.97;5008275;28;19929;-71
2023/10/26 10:40:55;;;;;;;16.25;9.00;;;;;;;28.42;nan;98776.59;5025739;28;20504;-71
2023/10/26 10:43:45;;;;;;;15.63;9.20;;;;;;;28.43;nan;98771.94;5014450;28;20530;-70
2023/10/26 10:46:20;;;;;;;14.95;9.48;;;;;;;28.39;nan;98773.66;5005310;28;20056;-70
2023/10/26 10:49:07;;;;;;;16.42;9.93;;;;;;;28.31;nan;98767.03;5005528;28;20042;-70
2023/10/26 10:51:44;;;;;;;14.23;8.73;;;;;;;28.25;nan;98765.53;5005284;28;20151;-68
2023/10/26 10:54:20;;;;;;;15.15;9.27;;;;;;;28.18;nan;98762.44;5022155;28;20053;-69
2023/10/26 10:57:07;;;;;;;16.80;9.45;;;;;;;28.10;nan;98763.94;5004529;28;20136;-69
2023/10/26 10:59:37;;;;;;;14.73;9.45;;;;;;;28.09;nan;98767.75;5005635;28;20053;-69
2023/10/26 11:02:12;;;;;;;13.48;9.25;;;;;;;28.08;nan;98760.69;5018296;28;20053;-70
2023/10/26 11:04:58;;;;;;;19.40;9.65;;;;;;;28.01;nan;98759.50;5007167;28;20054;-70
2023/10/26 11:07:40;;;;;;;14.80;9.57;;;;;;;28.00;nan;98755.16;5007907;28;20053;-69
2023/10/26 11:10:10;;;;;;;13.88;8.70;;;;;;;27.94;nan;98754.47;5004615;28;20073;-70
2023/10/26 11:12:40;;;;;;;18.38;9.50;;;;;;;27.85;nan;98758.19;5008593;28;20369;-70
2023/10/26 11:15:10;;;;;;;13.85;9.27;;;;;;;27.83;nan;98753.06;4985121;28;20581;-70
2023/10/26 11:17:39;;;;;;;18.98;9.65;;;;;;;27.86;nan;98762.53;4985947;28;20047;-70
2023/10/26 11:20:55;;;;;;;12.23;9.80;;;;;;;27.76;nan;98762.72;5023461;28;20045;-71
2023/10/26 11:23:25;;;;;;;21.35;9.52;;;;;;;27.63;nan;98751.56;5011558;28;20132;-70
2023/10/26 11:25:54;;;;;;;17.45;10.10;;;;;;;27.61;nan;98755.69;5006290;28;20060;-70
2023/10/26 11:28:35;;;;;;;14.80;9.38;;;;;;;27.62;nan;98755.38;5004606;28;20390;-70
2023/10/26 11:31:05;;;;;;;14.48;8.82;;;;;;;27.56;nan;98743.00;5011718;28;20734;-70
2023/10/26 11:33:37;;;;;;;24.67;11.43;;;;;;;27.40;nan;98752.50;5014735;28;20535;-71
2023/10/26 11:36:11;;;;;;;19.70;10.43;;;;;;;27.28;nan;98749.47;5004760;28;20084;-70
2023/10/26 11:38:48;;;;;;;25.80;10.77;;;;;;;27.23;nan;98746.84;5005396;28;20826;-69
2023/10/26 11:41:25;;;;;;;16.38;10.15;;;;;;;27.13;nan;98739.69;5004602;28;20144;-69
2023/10/26 11:43:55;;;;;;;17.98;10.45;;;;;;;27.00;nan;98742.38;5006863;28;20852;-70
2023/10/26 11:46:35;;;;;;;21.27;10.50;;;;;;;26.98;nan;98742.69;5013326;28;20762;-70
2023/10/26 11:49:06;;;;;;;25.88;10.10;;;;;;;26.92;nan;98737.63;5022649;28;20061;-70
2023/10/26 11:51:35;;;;;;;19.15;10.07;;;;;;;26.81;nan;98740.50;5022629;28;20045;-70
2023/10/26 11:54:12;;;;;;;19.70;9.88;;;;;;;26.67;nan;98742.34;5013280;28;20739;-69
2023/10/26 11:56:41;;;;;;;19.73;10.45;;;;;;;26.58;nan;98746.84;5004133;28;20489;-69
2023/10/26 11:59:11;;;;;;;19.85;11.02;;;;;;;26.43;nan;98752.50;5004186;28;20052;-69